sensor_id;sensor_type;location;lat;lon;timestamp;P1;durP1;ratioP1;P2;durP2;ratioP2
77522;SDS011;66637;-29.628;-49.938;2023-04-01T00:00:06;4.68;;;1.08;;
77522;SDS011;66637;-29.628;-49.938;2023-04-01T00:02:39;2.85;;;1.00;;
77522;SDS011;66637;-29.628;-49.938;2023-04-01T00:05:11;5.22;;;1.10;;
77522;SDS011;66637;-29.628;-49.938;2023-04-01T00:07:46;4.20;;;1.10;;
77522;SDS011;66637;-29.628;-49.938;2023-04-01T00:10:17;6.03;;;1.30;;
77522;SDS011;66637;-29.628;-49.938;2023-04-01T00:12:48;12.98;;;2.22;;
77522;SDS011;66637;-29.628;-49.938;2023-04-01T00:15:18;17.50;;;3.25;;
77522;SDS011;66637;-29.628;-49.938;2023-04-01T00:17:49;17.65;;;2.90;;
77522;SDS011;66637;-29.628;-49.938;2023-04-01T00:20:19;29.75;;;4.18;;
77522;SDS011;66637;-29.628;-49.938;2023-04-01T00:22:51;19.52;;;3.30;;
77522;SDS011;66637;-29.628;-49.938;2023-04-01T00:25:21;20.48;;;3.38;;
77522;SDS011;66637;-29.628;-49.938;2023-04-01T00:27:53;20.80;;;3.13;;
77522;SDS011;66637;-29.628;-49.938;2023-04-01T00:30:24;27.80;;;4.32;;
77522;SDS011;66637;-29.628;-49.938;2023-04-01T00:32:55;9.00;;;2.10;;
77522;SDS011;66637;-29.628;-49.938;2023-04-01T00:35:27;6.35;;;1.60;;
77522;SDS011;66637;-29.628;-49.938;2023-04-01T00:37:58;6.80;;;1.48;;
77522;SDS011;66637;-29.628;-49.938;2023-04-01T00:40:32;5.85;;;1.30;;
77522;SDS011;66637;-29.628;-49.938;2023-04-01T00:43:10;8.93;;;1.75;;
77522;SDS011;66637;-29.628;-49.938;2023-04-01T00:45:44;6.70;;;1.42;;
77522;SDS011;66637;-29.628;-49.938;2023-04-01T00:48:17;9.73;;;1.45;;
77522;SDS011;66637;-29.628;-49.938;2023-04-01T00:50:53;5.90;;;1.75;;
77522;SDS011;66637;-29.628;-49.938;2023-04-01T00:53:27;15.10;;;2.60;;
77522;SDS011;66637;-29.628;-49.938;2023-04-01T00:58:46;34.85;;;4.68;;
77522;SDS011;66637;-29.628;-49.938;2023-04-01T01:01:21;26.25;;;3.42;;
77522;SDS011;66637;-29.628;-49.938;2023-04-01T01:03:53;31.10;;;4.65;;
77522;SDS011;66637;-29.628;-49.938;2023-04-01T01:09:06;16.45;;;2.60;;
77522;SDS011;66637;-29.628;-49.938;2023-04-01T01:11:42;10.25;;;1.77;;
77522;SDS011;66637;-29.628;-49.938;2023-04-01T01:14:33;14.75;;;1.98;;
77522;SDS011;66637;-29.628;-49.938;2023-04-01T01:26:28;13.88;;;1.90;;
77522;SDS011;66637;-29.628;-49.938;2023-04-01T01:35:24;9.95;;;1.75;;
77522;SDS011;66637;-29.628;-49.938;2023-04-01T01:38:19;5.95;;;1.40;;
77522;SDS011;66637;-29.628;-49.938;2023-04-01T01:41:01;7.80;;;1.45;;
77522;SDS011;66637;-29.628;-49.938;2023-04-01T01:43:36;8.80;;;1.30;;
77522;SDS011;66637;-29.628;-49.938;2023-04-01T01:46:13;12.32;;;1.52;;
77522;SDS011;66637;-29.628;-49.938;2023-04-01T01:48:47;10.93;;;1.63;;
77522;SDS011;66637;-29.628;-49.938;2023-04-01T01:51:21;8.73;;;1.75;;
77522;SDS011;66637;-29.628;-49.938;2023-04-01T01:53:53;13.98;;;2.05;;
77522;SDS011;66637;-29.628;-49.938;2023-04-01T01:56:26;12.85;;;1.65;;
77522;SDS011;66637;-29.628;-49.938;2023-04-01T01:59:00;13.38;;;2.15;;
77522;SDS011;66637;-29.628;-49.938;2023-04-01T02:01:35;10.02;;;1.42;;
77522;SDS011;66637;-29.628;-49.938;2023-04-01T02:04:13;14.73;;;1.50;;
77522;SDS011;66637;-29.628;-49.938;2023-04-01T02:06:59;12.68;;;1.98;;
77522;SDS011;66637;-29.628;-49.938;2023-04-01T02:09:34;11.98;;;1.80;;
77522;SDS011;66637;-29.628;-49.938;2023-04-01T02:12:06;9.98;;;1.70;;
77522;SDS011;66637;-29.628;-49.938;2023-04-01T02:17:24;13.38;;;1.77;;
77522;SDS011;66637;-29.628;-49.938;2023-04-01T02:20:06;12.80;;;2.15;;
77522;SDS011;66637;-29.628;-49.938;2023-04-01T02:22:46;10.10;;;1.80;;
77522;SDS011;66637;-29.628;-49.938;2023-04-01T02:25:22;10.85;;;1.52;;
77522;SDS011;66637;-29.628;-49.938;2023-04-01T02:27:57;13.70;;;2.00;;
77522;SDS011;66637;-29.628;-49.938;2023-04-01T02:30:31;12.23;;;1.77;;
77522;SDS011;66637;-29.628;-49.938;2023-04-01T02:33:04;11.68;;;2.20;;
77522;SDS011;66637;-29.628;-49.938;2023-04-01T02:35:36;14.38;;;1.90;;
77522;SDS011;66637;-29.628;-49.938;2023-04-01T02:38:08;10.10;;;1.98;;
77522;SDS011;66637;-29.628;-49.938;2023-04-01T02:40:43;11.38;;;1.80;;
77522;SDS011;66637;-29.628;-49.938;2023-04-01T02:43:19;13.85;;;2.15;;
77522;SDS011;66637;-29.628;-49.938;2023-04-01T02:45:50;13.45;;;1.88;;
77522;SDS011;66637;-29.628;-49.938;2023-04-01T02:48:20;12.32;;;2.03;;
77522;SDS011;66637;-29.628;-49.938;2023-04-01T02:50:51;13.63;;;2.20;;
77522;SDS011;66637;-29.628;-49.938;2023-04-01T02:53:22;12.57;;;2.15;;
77522;SDS011;66637;-29.628;-49.938;2023-04-01T02:55:54;16.83;;;2.08;;
77522;SDS011;66637;-29.628;-49.938;2023-04-01T02:58:24;13.35;;;1.83;;
77522;SDS011;66637;-29.628;-49.938;2023-04-01T03:00:54;11.55;;;1.85;;
77522;SDS011;66637;-29.628;-49.938;2023-04-01T03:03:25;11.93;;;1.98;;
77522;SDS011;66637;-29.628;-49.938;2023-04-01T03:05:55;10.80;;;1.67;;
77522;SDS011;66637;-29.628;-49.938;2023-04-01T03:08:27;13.23;;;1.88;;
77522;SDS011;66637;-29.628;-49.938;2023-04-01T03:10:58;12.50;;;2.20;;
77522;SDS011;66637;-29.628;-49.938;2023-04-01T03:13:33;15.27;;;2.13;;
77522;SDS011;66637;-29.628;-49.938;2023-04-01T03:16:03;8.50;;;2.10;;
77522;SDS011;66637;-29.628;-49.938;2023-04-01T03:18:35;15.40;;;2.85;;
77522;SDS011;66637;-29.628;-49.938;2023-04-01T03:21:12;14.80;;;2.50;;
77522;SDS011;66637;-29.628;-49.938;2023-04-01T03:23:52;12.73;;;2.17;;
77522;SDS011;66637;-29.628;-49.938;2023-04-01T03:26:22;14.43;;;2.13;;
77522;SDS011;66637;-29.628;-49.938;2023-04-01T03:28:53;13.70;;;2.30;;
77522;SDS011;66637;-29.628;-49.938;2023-04-01T03:31:25;15.35;;;3.30;;
77522;SDS011;66637;-29.628;-49.938;2023-04-01T03:33:57;12.90;;;2.72;;
77522;SDS011;66637;-29.628;-49.938;2023-04-01T03:36:28;15.10;;;2.33;;
77522;SDS011;66637;-29.628;-49.938;2023-04-01T03:39:00;14.55;;;2.17;;
77522;SDS011;66637;-29.628;-49.938;2023-04-01T03:41:38;11.18;;;2.22;;
77522;SDS011;66637;-29.628;-49.938;2023-04-01T03:44:10;18.08;;;2.13;;
77522;SDS011;66637;-29.628;-49.938;2023-04-01T03:46:43;14.60;;;1.90;;
77522;SDS011;66637;-29.628;-49.938;2023-04-01T03:49:14;13.15;;;1.90;;
77522;SDS011;66637;-29.628;-49.938;2023-04-01T03:51:46;14.18;;;2.10;;
77522;SDS011;66637;-29.628;-49.938;2023-04-01T03:54:16;16.63;;;2.35;;
77522;SDS011;66637;-29.628;-49.938;2023-04-01T03:56:50;16.48;;;2.28;;
77522;SDS011;66637;-29.628;-49.938;2023-04-01T03:59:21;15.80;;;2.10;;
77522;SDS011;66637;-29.628;-49.938;2023-04-01T04:01:52;11.10;;;1.80;;
77522;SDS011;66637;-29.628;-49.938;2023-04-01T04:04:22;8.25;;;1.60;;
77522;SDS011;66637;-29.628;-49.938;2023-04-01T04:06:57;10.15;;;1.55;;
77522;SDS011;66637;-29.628;-49.938;2023-04-01T04:09:35;11.27;;;1.52;;
77522;SDS011;66637;-29.628;-49.938;2023-04-01T04:12:05;12.38;;;1.80;;
77522;SDS011;66637;-29.628;-49.938;2023-04-01T04:14:40;10.95;;;1.98;;
77522;SDS011;66637;-29.628;-49.938;2023-04-01T04:17:11;8.40;;;1.38;;
77522;SDS011;66637;-29.628;-49.938;2023-04-01T04:19:45;10.52;;;1.73;;
77522;SDS011;66637;-29.628;-49.938;2023-04-01T04:22:16;10.95;;;1.73;;
77522;SDS011;66637;-29.628;-49.938;2023-04-01T04:24:46;7.50;;;1.48;;
77522;SDS011;66637;-29.628;-49.938;2023-04-01T04:27:18;10.23;;;1.50;;
77522;SDS011;66637;-29.628;-49.938;2023-04-01T04:30:01;6.07;;;1.02;;
77522;SDS011;66637;-29.628;-49.938;2023-04-01T04:32:33;9.20;;;1.25;;
77522;SDS011;66637;-29.628;-49.938;2023-04-01T04:35:05;4.75;;;1.20;;
77522;SDS011;66637;-29.628;-49.938;2023-04-01T04:37:37;6.43;;;1.05;;
77522;SDS011;66637;-29.628;-49.938;2023-04-01T04:40:07;8.25;;;1.38;;
77522;SDS011;66637;-29.628;-49.938;2023-04-01T04:42:38;7.82;;;1.35;;
77522;SDS011;66637;-29.628;-49.938;2023-04-01T04:45:12;5.82;;;1.10;;
77522;SDS011;66637;-29.628;-49.938;2023-04-01T04:47:52;9.07;;;1.25;;
77522;SDS011;66637;-29.628;-49.938;2023-04-01T04:50:26;5.90;;;1.40;;
77522;SDS011;66637;-29.628;-49.938;2023-04-01T04:52:56;6.13;;;1.25;;
77522;SDS011;66637;-29.628;-49.938;2023-04-01T04:55:29;5.05;;;1.20;;
77522;SDS011;66637;-29.628;-49.938;2023-04-01T04:58:21;8.05;;;1.20;;
77522;SDS011;66637;-29.628;-49.938;2023-04-01T05:00:52;5.50;;;1.33;;
77522;SDS011;66637;-29.628;-49.938;2023-04-01T05:03:27;10.98;;;1.30;;
77522;SDS011;66637;-29.628;-49.938;2023-04-01T05:05:58;13.20;;;1.30;;
77522;SDS011;66637;-29.628;-49.938;2023-04-01T05:08:30;7.80;;;1.65;;
77522;SDS011;66637;-29.628;-49.938;2023-04-01T05:11:03;8.25;;;1.02;;
77522;SDS011;66637;-29.628;-49.938;2023-04-01T05:13:34;8.88;;;1.20;;
77522;SDS011;66637;-29.628;-49.938;2023-04-01T05:16:11;6.95;;;1.08;;
77522;SDS011;66637;-29.628;-49.938;2023-04-01T05:18:48;9.10;;;1.20;;
77522;SDS011;66637;-29.628;-49.938;2023-04-01T05:21:18;9.30;;;1.58;;
77522;SDS011;66637;-29.628;-49.938;2023-04-01T05:23:49;9.80;;;1.05;;
77522;SDS011;66637;-29.628;-49.938;2023-04-01T05:26:23;10.52;;;1.30;;
77522;SDS011;66637;-29.628;-49.938;2023-04-01T05:28:54;9.68;;;1.35;;
77522;SDS011;66637;-29.628;-49.938;2023-04-01T05:31:24;10.07;;;1.10;;
77522;SDS011;66637;-29.628;-49.938;2023-04-01T05:33:57;9.50;;;1.17;;
77522;SDS011;66637;-29.628;-49.938;2023-04-01T05:36:30;11.93;;;1.20;;
77522;SDS011;66637;-29.628;-49.938;2023-04-01T05:39:08;5.65;;;0.68;;
77522;SDS011;66637;-29.628;-49.938;2023-04-01T05:41:43;6.43;;;0.77;;
77522;SDS011;66637;-29.628;-49.938;2023-04-01T05:44:14;3.95;;;0.73;;
77522;SDS011;66637;-29.628;-49.938;2023-04-01T05:47:03;5.68;;;0.80;;
77522;SDS011;66637;-29.628;-49.938;2023-04-01T05:49:35;3.92;;;0.50;;
77522;SDS011;66637;-29.628;-49.938;2023-04-01T05:52:12;7.63;;;1.02;;
77522;SDS011;66637;-29.628;-49.938;2023-04-01T05:54:46;7.85;;;0.65;;
77522;SDS011;66637;-29.628;-49.938;2023-04-01T05:57:19;7.10;;;0.60;;
77522;SDS011;66637;-29.628;-49.938;2023-04-01T05:59:50;5.60;;;0.88;;
77522;SDS011;66637;-29.628;-49.938;2023-04-01T06:02:20;5.95;;;0.70;;
77522;SDS011;66637;-29.628;-49.938;2023-04-01T06:04:53;5.35;;;0.93;;
77522;SDS011;66637;-29.628;-49.938;2023-04-01T06:07:49;6.88;;;0.70;;
77522;SDS011;66637;-29.628;-49.938;2023-04-01T06:10:42;5.30;;;0.70;;
77522;SDS011;66637;-29.628;-49.938;2023-04-01T06:13:37;8.10;;;0.70;;
77522;SDS011;66637;-29.628;-49.938;2023-04-01T06:27:45;6.30;;;0.45;;
77522;SDS011;66637;-29.628;-49.938;2023-04-01T06:30:38;8.15;;;0.65;;
77522;SDS011;66637;-29.628;-49.938;2023-04-01T06:33:30;9.07;;;0.70;;
77522;SDS011;66637;-29.628;-49.938;2023-04-01T06:36:32;6.70;;;0.47;;
77522;SDS011;66637;-29.628;-49.938;2023-04-01T06:39:38;7.25;;;0.85;;
77522;SDS011;66637;-29.628;-49.938;2023-04-01T06:42:22;5.10;;;0.63;;
77522;SDS011;66637;-29.628;-49.938;2023-04-01T06:54:09;3.42;;;0.63;;
77522;SDS011;66637;-29.628;-49.938;2023-04-01T06:57:00;6.00;;;0.80;;
77522;SDS011;66637;-29.628;-49.938;2023-04-01T06:59:48;6.70;;;0.50;;
77522;SDS011;66637;-29.628;-49.938;2023-04-01T07:02:38;3.67;;;0.60;;
77522;SDS011;66637;-29.628;-49.938;2023-04-01T07:05:15;4.63;;;0.50;;
77522;SDS011;66637;-29.628;-49.938;2023-04-01T07:07:50;5.18;;;0.65;;
77522;SDS011;66637;-29.628;-49.938;2023-04-01T07:10:37;5.38;;;0.60;;
77522;SDS011;66637;-29.628;-49.938;2023-04-01T07:13:41;9.25;;;1.02;;
77522;SDS011;66637;-29.628;-49.938;2023-04-01T07:16:24;6.15;;;0.90;;
77522;SDS011;66637;-29.628;-49.938;2023-04-01T07:19:08;6.35;;;0.50;;
77522;SDS011;66637;-29.628;-49.938;2023-04-01T07:22:09;6.93;;;0.80;;
77522;SDS011;66637;-29.628;-49.938;2023-04-01T07:25:18;6.53;;;0.90;;
77522;SDS011;66637;-29.628;-49.938;2023-04-01T07:28:15;6.47;;;0.80;;
77522;SDS011;66637;-29.628;-49.938;2023-04-01T07:31:05;8.10;;;0.50;;
77522;SDS011;66637;-29.628;-49.938;2023-04-01T07:42:26;4.55;;;0.82;;
77522;SDS011;66637;-29.628;-49.938;2023-04-01T07:48:09;4.55;;;0.50;;
77522;SDS011;66637;-29.628;-49.938;2023-04-01T08:06:03;3.08;;;0.50;;
77522;SDS011;66637;-29.628;-49.938;2023-04-01T08:08:58;7.93;;;0.50;;
77522;SDS011;66637;-29.628;-49.938;2023-04-01T08:12:26;3.08;;;0.40;;
77522;SDS011;66637;-29.628;-49.938;2023-04-01T08:21:32;3.67;;;0.47;;
77522;SDS011;66637;-29.628;-49.938;2023-04-01T08:24:22;3.92;;;0.40;;
77522;SDS011;66637;-29.628;-49.938;2023-04-01T08:30:06;4.15;;;0.43;;
77522;SDS011;66637;-29.628;-49.938;2023-04-01T08:32:55;5.50;;;0.50;;
77522;SDS011;66637;-29.628;-49.938;2023-04-01T08:35:40;7.88;;;0.90;;
77522;SDS011;66637;-29.628;-49.938;2023-04-01T08:41:00;4.97;;;0.52;;
77522;SDS011;66637;-29.628;-49.938;2023-04-01T08:44:28;6.72;;;0.50;;
77522;SDS011;66637;-29.628;-49.938;2023-04-01T08:52:54;3.53;;;0.55;;
77522;SDS011;66637;-29.628;-49.938;2023-04-01T09:01:21;4.35;;;0.73;;
77522;SDS011;66637;-29.628;-49.938;2023-04-01T09:12:42;4.82;;;0.60;;
77522;SDS011;66637;-29.628;-49.938;2023-04-01T09:18:32;10.55;;;0.80;;
77522;SDS011;66637;-29.628;-49.938;2023-04-01T09:21:37;6.55;;;0.70;;
77522;SDS011;66637;-29.628;-49.938;2023-04-01T09:24:33;7.35;;;0.60;;
77522;SDS011;66637;-29.628;-49.938;2023-04-01T09:36:20;6.78;;;0.65;;
77522;SDS011;66637;-29.628;-49.938;2023-04-01T09:44:22;5.85;;;1.10;;
77522;SDS011;66637;-29.628;-49.938;2023-04-01T09:50:14;8.15;;;0.73;;
77522;SDS011;66637;-29.628;-49.938;2023-04-01T09:53:17;5.60;;;0.70;;
77522;SDS011;66637;-29.628;-49.938;2023-04-01T09:55:56;6.40;;;0.93;;
77522;SDS011;66637;-29.628;-49.938;2023-04-01T10:14:32;7.63;;;0.90;;
77522;SDS011;66637;-29.628;-49.938;2023-04-01T10:32:14;7.60;;;0.80;;
77522;SDS011;66637;-29.628;-49.938;2023-04-01T10:41:09;4.38;;;0.57;;
77522;SDS011;66637;-29.628;-49.938;2023-04-01T11:14:16;6.18;;;0.65;;
77522;SDS011;66637;-29.628;-49.938;2023-04-01T11:25:49;5.15;;;0.60;;
77522;SDS011;66637;-29.628;-49.938;2023-04-01T11:37:29;4.63;;;0.55;;
77522;SDS011;66637;-29.628;-49.938;2023-04-01T11:41:13;7.72;;;0.88;;
77522;SDS011;66637;-29.628;-49.938;2023-04-01T11:44:03;7.82;;;0.80;;
77522;SDS011;66637;-29.628;-49.938;2023-04-01T11:46:59;6.65;;;0.80;;
77522;SDS011;66637;-29.628;-49.938;2023-04-01T12:01:27;6.88;;;0.90;;
77522;SDS011;66637;-29.628;-49.938;2023-04-01T12:08:54;5.90;;;0.82;;
77522;SDS011;66637;-29.628;-49.938;2023-04-01T12:15:00;8.10;;;1.00;;
77522;SDS011;66637;-29.628;-49.938;2023-04-01T12:18:06;5.78;;;0.80;;
77522;SDS011;66637;-29.628;-49.938;2023-04-01T12:21:07;5.45;;;0.90;;
77522;SDS011;66637;-29.628;-49.938;2023-04-01T12:32:55;6.05;;;0.60;;
77522;SDS011;66637;-29.628;-49.938;2023-04-01T12:35:53;3.38;;;0.80;;
77522;SDS011;66637;-29.628;-49.938;2023-04-01T12:58:23;4.97;;;0.60;;
77522;SDS011;66637;-29.628;-49.938;2023-04-01T13:10:06;5.93;;;0.90;;
77522;SDS011;66637;-29.628;-49.938;2023-04-01T13:13:34;5.78;;;1.02;;
77522;SDS011;66637;-29.628;-49.938;2023-04-01T13:16:12;4.93;;;0.70;;
77522;SDS011;66637;-29.628;-49.938;2023-04-01T13:19:13;5.38;;;0.80;;
77522;SDS011;66637;-29.628;-49.938;2023-04-01T13:28:09;6.93;;;1.00;;
77522;SDS011;66637;-29.628;-49.938;2023-04-01T13:30:59;4.35;;;0.88;;
77522;SDS011;66637;-29.628;-49.938;2023-04-01T14:02:24;11.18;;;1.02;;
77522;SDS011;66637;-29.628;-49.938;2023-04-01T14:20:22;6.28;;;1.00;;
77522;SDS011;66637;-29.628;-49.938;2023-04-01T14:28:49;4.15;;;0.80;;
77522;SDS011;66637;-29.628;-49.938;2023-04-01T14:34:47;5.35;;;0.80;;
77522;SDS011;66637;-29.628;-49.938;2023-04-01T14:37:48;5.47;;;0.95;;
77522;SDS011;66637;-29.628;-49.938;2023-04-01T14:40:49;6.80;;;0.75;;
77522;SDS011;66637;-29.628;-49.938;2023-04-01T14:43:47;4.97;;;1.08;;
77522;SDS011;66637;-29.628;-49.938;2023-04-01T14:55:00;4.40;;;0.88;;
77522;SDS011;66637;-29.628;-49.938;2023-04-01T14:57:33;5.65;;;1.20;;
77522;SDS011;66637;-29.628;-49.938;2023-04-01T15:00:15;6.97;;;1.00;;
77522;SDS011;66637;-29.628;-49.938;2023-04-01T15:11:12;4.95;;;0.73;;
77522;SDS011;66637;-29.628;-49.938;2023-04-01T15:17:05;3.92;;;0.75;;
77522;SDS011;66637;-29.628;-49.938;2023-04-01T15:28:36;5.00;;;0.70;;
77522;SDS011;66637;-29.628;-49.938;2023-04-01T15:31:13;5.57;;;0.73;;
77522;SDS011;66637;-29.628;-49.938;2023-04-01T15:33:53;5.50;;;1.00;;
77522;SDS011;66637;-29.628;-49.938;2023-04-01T15:45:06;4.78;;;0.95;;
77522;SDS011;66637;-29.628;-49.938;2023-04-01T16:10:17;4.55;;;0.90;;
77522;SDS011;66637;-29.628;-49.938;2023-04-01T16:15:44;5.43;;;0.73;;
77522;SDS011;66637;-29.628;-49.938;2023-04-01T16:21:33;4.03;;;0.95;;
77522;SDS011;66637;-29.628;-49.938;2023-04-01T16:24:33;4.63;;;0.60;;
77522;SDS011;66637;-29.628;-49.938;2023-04-01T16:30:33;8.73;;;1.70;;
77522;SDS011;66637;-29.628;-49.938;2023-04-01T16:36:54;6.03;;;1.05;;
77522;SDS011;66637;-29.628;-49.938;2023-04-01T16:39:53;7.63;;;1.25;;
77522;SDS011;66637;-29.628;-49.938;2023-04-01T16:42:46;8.95;;;1.42;;
77522;SDS011;66637;-29.628;-49.938;2023-04-01T16:45:36;6.35;;;1.02;;
77522;SDS011;66637;-29.628;-49.938;2023-04-01T16:48:12;5.90;;;1.20;;
77522;SDS011;66637;-29.628;-49.938;2023-04-01T16:51:09;4.72;;;0.82;;
77522;SDS011;66637;-29.628;-49.938;2023-04-01T16:54:30;3.85;;;0.98;;
77522;SDS011;66637;-29.628;-49.938;2023-04-01T17:00:16;6.25;;;1.00;;
77522;SDS011;66637;-29.628;-49.938;2023-04-01T17:02:43;5.70;;;0.70;;
77522;SDS011;66637;-29.628;-49.938;2023-04-01T17:08:10;5.13;;;0.90;;
77522;SDS011;66637;-29.628;-49.938;2023-04-01T17:10:53;6.20;;;0.95;;
77522;SDS011;66637;-29.628;-49.938;2023-04-01T17:13:52;7.10;;;0.88;;
77522;SDS011;66637;-29.628;-49.938;2023-04-01T17:31:41;5.15;;;1.00;;
77522;SDS011;66637;-29.628;-49.938;2023-04-01T17:37:14;5.25;;;0.85;;
77522;SDS011;66637;-29.628;-49.938;2023-04-01T17:45:42;6.05;;;0.90;;
77522;SDS011;66637;-29.628;-49.938;2023-04-01T17:48:18;6.90;;;0.95;;
77522;SDS011;66637;-29.628;-49.938;2023-04-01T17:51:17;4.97;;;0.93;;
77522;SDS011;66637;-29.628;-49.938;2023-04-01T17:59:10;7.03;;;1.02;;
77522;SDS011;66637;-29.628;-49.938;2023-04-01T18:02:21;4.68;;;0.88;;
77522;SDS011;66637;-29.628;-49.938;2023-04-01T18:11:05;5.07;;;0.93;;
77522;SDS011;66637;-29.628;-49.938;2023-04-01T18:25:43;9.00;;;1.00;;
77522;SDS011;66637;-29.628;-49.938;2023-04-01T18:43:26;5.15;;;0.80;;
77522;SDS011;66637;-29.628;-49.938;2023-04-01T18:45:58;8.13;;;0.93;;
77522;SDS011;66637;-29.628;-49.938;2023-04-01T18:48:49;7.78;;;1.02;;
77522;SDS011;66637;-29.628;-49.938;2023-04-01T18:52:07;7.85;;;1.30;;
77522;SDS011;66637;-29.628;-49.938;2023-04-01T18:54:33;9.15;;;1.17;;
77522;SDS011;66637;-29.628;-49.938;2023-04-01T18:57:27;6.25;;;0.85;;
77522;SDS011;66637;-29.628;-49.938;2023-04-01T19:00:17;6.70;;;1.10;;
77522;SDS011;66637;-29.628;-49.938;2023-04-01T19:02:58;5.68;;;1.00;;
77522;SDS011;66637;-29.628;-49.938;2023-04-01T19:05:40;6.75;;;1.38;;
77522;SDS011;66637;-29.628;-49.938;2023-04-01T19:16:09;7.35;;;0.93;;
77522;SDS011;66637;-29.628;-49.938;2023-04-01T19:18:46;5.00;;;0.90;;
77522;SDS011;66637;-29.628;-49.938;2023-04-01T19:21:47;7.40;;;1.00;;
77522;SDS011;66637;-29.628;-49.938;2023-04-01T19:47:24;9.25;;;2.35;;
77522;SDS011;66637;-29.628;-49.938;2023-04-01T19:50:30;7.53;;;1.30;;
77522;SDS011;66637;-29.628;-49.938;2023-04-01T19:56:24;5.22;;;1.05;;
77522;SDS011;66637;-29.628;-49.938;2023-04-01T20:18:54;8.18;;;1.45;;
77522;SDS011;66637;-29.628;-49.938;2023-04-01T20:24:14;6.32;;;1.08;;
77522;SDS011;66637;-29.628;-49.938;2023-04-01T20:27:31;12.95;;;1.98;;
77522;SDS011;66637;-29.628;-49.938;2023-04-01T20:51:32;9.85;;;0.98;;
77522;SDS011;66637;-29.628;-49.938;2023-04-01T20:54:32;11.25;;;1.20;;
77522;SDS011;66637;-29.628;-49.938;2023-04-01T20:57:06;9.88;;;1.40;;
77522;SDS011;66637;-29.628;-49.938;2023-04-01T21:00:24;6.30;;;1.00;;
77522;SDS011;66637;-29.628;-49.938;2023-04-01T21:21:13;10.52;;;1.40;;
77522;SDS011;66637;-29.628;-49.938;2023-04-01T21:37:56;11.25;;;1.60;;
77522;SDS011;66637;-29.628;-49.938;2023-04-01T21:55:29;10.93;;;1.60;;
77522;SDS011;66637;-29.628;-49.938;2023-04-01T22:12:52;9.80;;;1.05;;
77522;SDS011;66637;-29.628;-49.938;2023-04-01T22:15:32;11.13;;;1.52;;
77522;SDS011;66637;-29.628;-49.938;2023-04-01T22:18:24;12.43;;;1.48;;
77522;SDS011;66637;-29.628;-49.938;2023-04-01T22:21:18;9.15;;;1.77;;
77522;SDS011;66637;-29.628;-49.938;2023-04-01T22:24:17;9.65;;;1.33;;
77522;SDS011;66637;-29.628;-49.938;2023-04-01T22:27:13;12.30;;;1.52;;
77522;SDS011;66637;-29.628;-49.938;2023-04-01T22:33:23;13.07;;;2.45;;
77522;SDS011;66637;-29.628;-49.938;2023-04-01T22:36:14;8.13;;;1.42;;
77522;SDS011;66637;-29.628;-49.938;2023-04-01T22:39:15;11.85;;;1.52;;
77522;SDS011;66637;-29.628;-49.938;2023-04-01T22:50:33;10.60;;;1.52;;
77522;SDS011;66637;-29.628;-49.938;2023-04-01T22:53:21;10.18;;;1.88;;
77522;SDS011;66637;-29.628;-49.938;2023-04-01T22:55:53;14.27;;;2.08;;
77522;SDS011;66637;-29.628;-49.938;2023-04-01T22:58:35;9.95;;;1.73;;
77522;SDS011;66637;-29.628;-49.938;2023-04-01T23:01:15;7.95;;;1.52;;
77522;SDS011;66637;-29.628;-49.938;2023-04-01T23:04:03;9.68;;;1.65;;
77522;SDS011;66637;-29.628;-49.938;2023-04-01T23:06:39;14.52;;;1.70;;
77522;SDS011;66637;-29.628;-49.938;2023-04-01T23:09:26;12.48;;;1.65;;
77522;SDS011;66637;-29.628;-49.938;2023-04-01T23:12:12;12.25;;;1.58;;
77522;SDS011;66637;-29.628;-49.938;2023-04-01T23:14:59;9.55;;;1.52;;
77522;SDS011;66637;-29.628;-49.938;2023-04-01T23:17:33;15.40;;;1.48;;
77522;SDS011;66637;-29.628;-49.938;2023-04-01T23:20:27;8.63;;;1.27;;
77522;SDS011;66637;-29.628;-49.938;2023-04-01T23:25:56;15.70;;;1.77;;
77522;SDS011;66637;-29.628;-49.938;2023-04-01T23:28:44;11.82;;;1.95;;
77522;SDS011;66637;-29.628;-49.938;2023-04-01T23:31:49;15.68;;;2.38;;
77522;SDS011;66637;-29.628;-49.938;2023-04-01T23:39:45;8.93;;;1.98;;
77522;SDS011;66637;-29.628;-49.938;2023-04-01T23:42:29;12.80;;;1.85;;
77522;SDS011;66637;-29.628;-49.938;2023-04-01T23:45:14;14.40;;;2.13;;
77522;SDS011;66637;-29.628;-49.938;2023-04-01T23:53:36;10.77;;;1.60;;
77522;SDS011;66637;-29.628;-49.938;2023-04-01T23:56:18;9.02;;;1.42;;
77522;SDS011;66637;-29.628;-49.938;2023-04-01T23:58:51;13.27;;;1.70;;
